sensor_id;sensor_type;location;lat;lon;timestamp;P1;durP1;ratioP1;P2;durP2;ratioP2
45728;SDS011;31439;53.512;10.206;2023-04-25T00:02:09;7.78;;;4.18;;
45728;SDS011;31439;53.512;10.206;2023-04-25T00:04:34;7.65;;;4.10;;
45728;SDS011;31439;53.512;10.206;2023-04-25T00:07:02;6.90;;;3.80;;
45728;SDS011;31439;53.512;10.206;2023-04-25T00:09:28;8.10;;;3.63;;
45728;SDS011;31439;53.512;10.206;2023-04-25T00:11:54;7.22;;;3.55;;
45728;SDS011;31439;53.512;10.206;2023-04-25T00:14:20;4.75;;;3.45;;
45728;SDS011;31439;53.512;10.206;2023-04-25T00:16:45;6.57;;;3.60;;
45728;SDS011;31439;53.512;10.206;2023-04-25T00:19:11;7.55;;;4.00;;
45728;SDS011;31439;53.512;10.206;2023-04-25T00:21:37;8.13;;;3.75;;
45728;SDS011;31439;53.512;10.206;2023-04-25T00:24:05;8.45;;;4.18;;
45728;SDS011;31439;53.512;10.206;2023-04-25T00:26:32;8.65;;;4.38;;
45728;SDS011;31439;53.512;10.206;2023-04-25T00:28:58;12.50;;;4.55;;
45728;SDS011;31439;53.512;10.206;2023-04-25T00:31:24;11.60;;;4.50;;
45728;SDS011;31439;53.512;10.206;2023-04-25T00:33:49;13.93;;;5.07;;
45728;SDS011;31439;53.512;10.206;2023-04-25T00:36:15;7.43;;;4.13;;
45728;SDS011;31439;53.512;10.206;2023-04-25T00:38:42;9.90;;;4.28;;
45728;SDS011;31439;53.512;10.206;2023-04-25T00:41:07;15.32;;;4.63;;
45728;SDS011;31439;53.512;10.206;2023-04-25T00:43:33;12.02;;;4.15;;
45728;SDS011;31439;53.512;10.206;2023-04-25T00:46:01;13.93;;;4.15;;
45728;SDS011;31439;53.512;10.206;2023-04-25T00:48:26;16.20;;;4.18;;
45728;SDS011;31439;53.512;10.206;2023-04-25T00:50:53;11.18;;;4.03;;
45728;SDS011;31439;53.512;10.206;2023-04-25T00:53:21;11.88;;;3.58;;
45728;SDS011;31439;53.512;10.206;2023-04-25T00:55:47;15.27;;;3.85;;
45728;SDS011;31439;53.512;10.206;2023-04-25T00:58:15;24.13;;;4.93;;
45728;SDS011;31439;53.512;10.206;2023-04-25T01:00:45;16.63;;;3.80;;
45728;SDS011;31439;53.512;10.206;2023-04-25T01:03:12;18.13;;;3.75;;
45728;SDS011;31439;53.512;10.206;2023-04-25T01:05:41;14.75;;;3.88;;
45728;SDS011;31439;53.512;10.206;2023-04-25T01:08:07;16.75;;;3.38;;
45728;SDS011;31439;53.512;10.206;2023-04-25T01:10:33;24.40;;;3.95;;
45728;SDS011;31439;53.512;10.206;2023-04-25T01:12:59;20.23;;;4.03;;
45728;SDS011;31439;53.512;10.206;2023-04-25T01:15:25;20.40;;;4.10;;
45728;SDS011;31439;53.512;10.206;2023-04-25T01:17:50;19.00;;;4.40;;
45728;SDS011;31439;53.512;10.206;2023-04-25T01:20:18;23.85;;;4.18;;
45728;SDS011;31439;53.512;10.206;2023-04-25T01:22:46;22.63;;;4.75;;
45728;SDS011;31439;53.512;10.206;2023-04-25T01:25:12;22.88;;;4.28;;
45728;SDS011;31439;53.512;10.206;2023-04-25T01:27:38;20.02;;;4.47;;
45728;SDS011;31439;53.512;10.206;2023-04-25T01:30:04;21.42;;;4.05;;
45728;SDS011;31439;53.512;10.206;2023-04-25T01:32:30;19.23;;;4.43;;
45728;SDS011;31439;53.512;10.206;2023-04-25T01:35:03;18.30;;;4.25;;
45728;SDS011;31439;53.512;10.206;2023-04-25T01:37:34;21.23;;;3.85;;
45728;SDS011;31439;53.512;10.206;2023-04-25T01:40:04;21.52;;;4.60;;
45728;SDS011;31439;53.512;10.206;2023-04-25T01:42:34;22.48;;;4.40;;
45728;SDS011;31439;53.512;10.206;2023-04-25T01:45:00;25.95;;;4.43;;
45728;SDS011;31439;53.512;10.206;2023-04-25T01:47:26;19.42;;;4.00;;
45728;SDS011;31439;53.512;10.206;2023-04-25T01:49:52;23.25;;;4.70;;
45728;SDS011;31439;53.512;10.206;2023-04-25T01:52:17;24.25;;;4.85;;
45728;SDS011;31439;53.512;10.206;2023-04-25T01:54:43;18.25;;;4.38;;
45728;SDS011;31439;53.512;10.206;2023-04-25T01:57:12;27.27;;;4.68;;
45728;SDS011;31439;53.512;10.206;2023-04-25T01:59:38;19.65;;;4.35;;
45728;SDS011;31439;53.512;10.206;2023-04-25T02:02:04;23.77;;;4.88;;
45728;SDS011;31439;53.512;10.206;2023-04-25T02:04:30;23.63;;;4.93;;
45728;SDS011;31439;53.512;10.206;2023-04-25T02:06:56;24.63;;;4.60;;
45728;SDS011;31439;53.512;10.206;2023-04-25T02:09:21;21.65;;;4.63;;
45728;SDS011;31439;53.512;10.206;2023-04-25T02:11:47;19.10;;;4.47;;
45728;SDS011;31439;53.512;10.206;2023-04-25T02:14:13;26.63;;;4.72;;
45728;SDS011;31439;53.512;10.206;2023-04-25T02:16:39;20.30;;;4.18;;
45728;SDS011;31439;53.512;10.206;2023-04-25T02:19:04;25.00;;;4.28;;
45728;SDS011;31439;53.512;10.206;2023-04-25T02:21:30;19.05;;;3.88;;
45728;SDS011;31439;53.512;10.206;2023-04-25T02:23:56;25.92;;;4.28;;
45728;SDS011;31439;53.512;10.206;2023-04-25T02:26:22;21.20;;;4.72;;
45728;SDS011;31439;53.512;10.206;2023-04-25T02:28:48;21.95;;;4.03;;
45728;SDS011;31439;53.512;10.206;2023-04-25T02:31:14;23.05;;;4.25;;
45728;SDS011;31439;53.512;10.206;2023-04-25T02:33:40;25.00;;;4.10;;
45728;SDS011;31439;53.512;10.206;2023-04-25T02:36:06;21.75;;;4.20;;
45728;SDS011;31439;53.512;10.206;2023-04-25T02:38:32;21.73;;;4.20;;
45728;SDS011;31439;53.512;10.206;2023-04-25T02:40:57;26.58;;;5.18;;
45728;SDS011;31439;53.512;10.206;2023-04-25T02:43:23;28.15;;;4.50;;
45728;SDS011;31439;53.512;10.206;2023-04-25T02:45:49;27.70;;;5.07;;
45728;SDS011;31439;53.512;10.206;2023-04-25T02:48:14;31.38;;;5.10;;
45728;SDS011;31439;53.512;10.206;2023-04-25T02:50:40;18.63;;;4.00;;
45728;SDS011;31439;53.512;10.206;2023-04-25T02:53:06;19.63;;;4.40;;
45728;SDS011;31439;53.512;10.206;2023-04-25T02:55:31;18.50;;;4.18;;
45728;SDS011;31439;53.512;10.206;2023-04-25T02:57:57;21.48;;;4.25;;
45728;SDS011;31439;53.512;10.206;2023-04-25T03:00:22;19.65;;;4.97;;
45728;SDS011;31439;53.512;10.206;2023-04-25T03:02:48;24.38;;;4.78;;
45728;SDS011;31439;53.512;10.206;2023-04-25T03:05:14;20.75;;;4.43;;
45728;SDS011;31439;53.512;10.206;2023-04-25T03:07:39;20.05;;;4.75;;
45728;SDS011;31439;53.512;10.206;2023-04-25T03:10:06;22.58;;;4.88;;
45728;SDS011;31439;53.512;10.206;2023-04-25T03:12:32;26.40;;;4.45;;
45728;SDS011;31439;53.512;10.206;2023-04-25T03:14:58;19.70;;;4.28;;
45728;SDS011;31439;53.512;10.206;2023-04-25T03:17:23;18.77;;;4.40;;
45728;SDS011;31439;53.512;10.206;2023-04-25T03:19:49;25.23;;;4.05;;
45728;SDS011;31439;53.512;10.206;2023-04-25T03:22:15;21.45;;;4.13;;
45728;SDS011;31439;53.512;10.206;2023-04-25T03:24:40;19.15;;;4.07;;
45728;SDS011;31439;53.512;10.206;2023-04-25T03:27:06;19.98;;;4.18;;
45728;SDS011;31439;53.512;10.206;2023-04-25T03:29:32;20.67;;;4.07;;
45728;SDS011;31439;53.512;10.206;2023-04-25T03:31:57;22.60;;;4.18;;
45728;SDS011;31439;53.512;10.206;2023-04-25T03:34:23;25.08;;;4.57;;
45728;SDS011;31439;53.512;10.206;2023-04-25T03:36:49;19.50;;;3.70;;
45728;SDS011;31439;53.512;10.206;2023-04-25T03:39:14;16.52;;;3.90;;
45728;SDS011;31439;53.512;10.206;2023-04-25T03:41:40;23.00;;;4.07;;
45728;SDS011;31439;53.512;10.206;2023-04-25T03:44:06;18.50;;;3.97;;
45728;SDS011;31439;53.512;10.206;2023-04-25T03:46:31;14.82;;;3.45;;
45728;SDS011;31439;53.512;10.206;2023-04-25T03:48:57;21.58;;;4.00;;
45728;SDS011;31439;53.512;10.206;2023-04-25T03:51:24;17.75;;;4.10;;
45728;SDS011;31439;53.512;10.206;2023-04-25T03:53:50;20.60;;;3.53;;
45728;SDS011;31439;53.512;10.206;2023-04-25T03:56:16;11.32;;;3.47;;
45728;SDS011;31439;53.512;10.206;2023-04-25T03:58:42;18.83;;;4.03;;
45728;SDS011;31439;53.512;10.206;2023-04-25T04:01:07;17.88;;;3.92;;
45728;SDS011;31439;53.512;10.206;2023-04-25T04:03:33;17.17;;;3.58;;
45728;SDS011;31439;53.512;10.206;2023-04-25T04:06:00;16.67;;;3.42;;
45728;SDS011;31439;53.512;10.206;2023-04-25T04:08:28;14.00;;;3.45;;
45728;SDS011;31439;53.512;10.206;2023-04-25T04:10:54;17.35;;;3.80;;
45728;SDS011;31439;53.512;10.206;2023-04-25T04:13:20;18.60;;;3.65;;
45728;SDS011;31439;53.512;10.206;2023-04-25T04:15:46;13.35;;;4.05;;
45728;SDS011;31439;53.512;10.206;2023-04-25T04:18:11;17.75;;;3.92;;
45728;SDS011;31439;53.512;10.206;2023-04-25T04:20:37;15.43;;;3.72;;
45728;SDS011;31439;53.512;10.206;2023-04-25T04:23:02;22.08;;;4.18;;
45728;SDS011;31439;53.512;10.206;2023-04-25T04:25:28;14.93;;;3.33;;
45728;SDS011;31439;53.512;10.206;2023-04-25T04:27:55;20.00;;;4.28;;
45728;SDS011;31439;53.512;10.206;2023-04-25T04:30:23;14.95;;;3.35;;
45728;SDS011;31439;53.512;10.206;2023-04-25T04:32:50;16.35;;;3.72;;
45728;SDS011;31439;53.512;10.206;2023-04-25T04:35:16;17.80;;;3.17;;
45728;SDS011;31439;53.512;10.206;2023-04-25T04:37:42;18.38;;;3.67;;
45728;SDS011;31439;53.512;10.206;2023-04-25T04:40:08;16.95;;;3.10;;
45728;SDS011;31439;53.512;10.206;2023-04-25T04:42:34;16.23;;;3.42;;
45728;SDS011;31439;53.512;10.206;2023-04-25T04:45:01;21.13;;;3.88;;
45728;SDS011;31439;53.512;10.206;2023-04-25T04:47:27;16.88;;;4.28;;
45728;SDS011;31439;53.512;10.206;2023-04-25T04:49:56;21.05;;;4.47;;
45728;SDS011;31439;53.512;10.206;2023-04-25T04:52:22;17.25;;;4.22;;
45728;SDS011;31439;53.512;10.206;2023-04-25T04:54:47;16.35;;;3.55;;
45728;SDS011;31439;53.512;10.206;2023-04-25T04:57:13;14.63;;;4.00;;
45728;SDS011;31439;53.512;10.206;2023-04-25T04:59:39;19.10;;;4.03;;
45728;SDS011;31439;53.512;10.206;2023-04-25T05:02:04;18.67;;;4.00;;
45728;SDS011;31439;53.512;10.206;2023-04-25T05:04:30;19.33;;;4.03;;
45728;SDS011;31439;53.512;10.206;2023-04-25T05:06:56;16.60;;;3.33;;
45728;SDS011;31439;53.512;10.206;2023-04-25T05:09:21;13.15;;;3.38;;
45728;SDS011;31439;53.512;10.206;2023-04-25T05:11:50;16.58;;;3.33;;
45728;SDS011;31439;53.512;10.206;2023-04-25T05:14:16;23.02;;;4.28;;
45728;SDS011;31439;53.512;10.206;2023-04-25T05:16:42;17.92;;;3.53;;
45728;SDS011;31439;53.512;10.206;2023-04-25T05:19:08;16.17;;;3.88;;
45728;SDS011;31439;53.512;10.206;2023-04-25T05:21:34;16.60;;;3.75;;
45728;SDS011;31439;53.512;10.206;2023-04-25T05:24:00;17.48;;;3.88;;
45728;SDS011;31439;53.512;10.206;2023-04-25T05:26:26;19.50;;;4.82;;
45728;SDS011;31439;53.512;10.206;2023-04-25T05:28:55;18.77;;;3.85;;
45728;SDS011;31439;53.512;10.206;2023-04-25T05:31:24;16.05;;;3.60;;
45728;SDS011;31439;53.512;10.206;2023-04-25T05:33:50;19.80;;;3.38;;
45728;SDS011;31439;53.512;10.206;2023-04-25T05:36:16;18.23;;;3.72;;
45728;SDS011;31439;53.512;10.206;2023-04-25T05:38:43;18.20;;;3.85;;
45728;SDS011;31439;53.512;10.206;2023-04-25T05:41:08;16.02;;;3.42;;
45728;SDS011;31439;53.512;10.206;2023-04-25T05:43:34;18.50;;;3.40;;
45728;SDS011;31439;53.512;10.206;2023-04-25T05:46:00;17.77;;;2.90;;
45728;SDS011;31439;53.512;10.206;2023-04-25T05:48:25;17.52;;;3.47;;
45728;SDS011;31439;53.512;10.206;2023-04-25T05:50:51;18.65;;;3.33;;
45728;SDS011;31439;53.512;10.206;2023-04-25T05:53:17;13.68;;;3.72;;
45728;SDS011;31439;53.512;10.206;2023-04-25T05:55:43;27.38;;;4.53;;
45728;SDS011;31439;53.512;10.206;2023-04-25T05:58:09;13.43;;;3.35;;
45728;SDS011;31439;53.512;10.206;2023-04-25T06:00:34;16.02;;;4.65;;
45728;SDS011;31439;53.512;10.206;2023-04-25T06:03:00;15.27;;;3.50;;
45728;SDS011;31439;53.512;10.206;2023-04-25T06:05:26;15.68;;;3.20;;
45728;SDS011;31439;53.512;10.206;2023-04-25T06:07:52;13.02;;;3.03;;
45728;SDS011;31439;53.512;10.206;2023-04-25T06:10:17;15.07;;;3.80;;
45728;SDS011;31439;53.512;10.206;2023-04-25T06:12:43;14.88;;;3.35;;
45728;SDS011;31439;53.512;10.206;2023-04-25T06:15:09;18.23;;;4.05;;
45728;SDS011;31439;53.512;10.206;2023-04-25T06:17:35;17.25;;;3.70;;
45728;SDS011;31439;53.512;10.206;2023-04-25T06:20:01;19.08;;;4.07;;
45728;SDS011;31439;53.512;10.206;2023-04-25T06:22:28;19.65;;;3.53;;
45728;SDS011;31439;53.512;10.206;2023-04-25T06:24:54;16.23;;;4.15;;
45728;SDS011;31439;53.512;10.206;2023-04-25T06:27:22;18.63;;;3.72;;
45728;SDS011;31439;53.512;10.206;2023-04-25T06:29:47;15.65;;;3.65;;
45728;SDS011;31439;53.512;10.206;2023-04-25T06:32:13;20.92;;;3.60;;
45728;SDS011;31439;53.512;10.206;2023-04-25T06:34:39;14.75;;;3.33;;
45728;SDS011;31439;53.512;10.206;2023-04-25T06:37:04;15.68;;;3.55;;
45728;SDS011;31439;53.512;10.206;2023-04-25T06:39:30;14.85;;;3.20;;
45728;SDS011;31439;53.512;10.206;2023-04-25T06:41:56;10.45;;;3.40;;
45728;SDS011;31439;53.512;10.206;2023-04-25T06:44:21;15.50;;;3.58;;
45728;SDS011;31439;53.512;10.206;2023-04-25T06:46:49;15.63;;;3.65;;
45728;SDS011;31439;53.512;10.206;2023-04-25T06:49:14;20.63;;;4.32;;
45728;SDS011;31439;53.512;10.206;2023-04-25T06:51:40;15.77;;;3.65;;
45728;SDS011;31439;53.512;10.206;2023-04-25T06:54:06;16.95;;;2.80;;
45728;SDS011;31439;53.512;10.206;2023-04-25T06:56:31;12.48;;;3.03;;
45728;SDS011;31439;53.512;10.206;2023-04-25T06:58:57;20.38;;;3.65;;
45728;SDS011;31439;53.512;10.206;2023-04-25T07:01:23;17.95;;;3.33;;
45728;SDS011;31439;53.512;10.206;2023-04-25T07:03:48;13.77;;;3.15;;
45728;SDS011;31439;53.512;10.206;2023-04-25T07:06:14;12.80;;;3.08;;
45728;SDS011;31439;53.512;10.206;2023-04-25T07:08:40;14.82;;;2.92;;
45728;SDS011;31439;53.512;10.206;2023-04-25T07:11:05;13.73;;;2.92;;
45728;SDS011;31439;53.512;10.206;2023-04-25T07:13:31;12.68;;;2.92;;
45728;SDS011;31439;53.512;10.206;2023-04-25T07:15:57;9.20;;;3.03;;
45728;SDS011;31439;53.512;10.206;2023-04-25T07:18:22;12.77;;;2.92;;
45728;SDS011;31439;53.512;10.206;2023-04-25T07:20:48;14.57;;;3.08;;
45728;SDS011;31439;53.512;10.206;2023-04-25T07:23:14;11.85;;;2.97;;
45728;SDS011;31439;53.512;10.206;2023-04-25T07:25:39;15.18;;;3.10;;
45728;SDS011;31439;53.512;10.206;2023-04-25T07:28:05;14.15;;;2.75;;
45728;SDS011;31439;53.512;10.206;2023-04-25T07:30:30;17.33;;;3.05;;
45728;SDS011;31439;53.512;10.206;2023-04-25T07:32:56;13.30;;;3.10;;
45728;SDS011;31439;53.512;10.206;2023-04-25T07:35:22;14.25;;;3.30;;
45728;SDS011;31439;53.512;10.206;2023-04-25T07:37:47;13.65;;;2.88;;
45728;SDS011;31439;53.512;10.206;2023-04-25T07:40:13;10.20;;;3.15;;
45728;SDS011;31439;53.512;10.206;2023-04-25T07:42:41;14.07;;;2.95;;
45728;SDS011;31439;53.512;10.206;2023-04-25T07:45:07;9.90;;;2.47;;
45728;SDS011;31439;53.512;10.206;2023-04-25T07:47:34;9.07;;;2.15;;
45728;SDS011;31439;53.512;10.206;2023-04-25T07:50:00;14.25;;;3.15;;
45728;SDS011;31439;53.512;10.206;2023-04-25T07:52:25;15.50;;;2.83;;
45728;SDS011;31439;53.512;10.206;2023-04-25T07:54:51;11.90;;;3.00;;
45728;SDS011;31439;53.512;10.206;2023-04-25T07:57:17;11.57;;;2.72;;
45728;SDS011;31439;53.512;10.206;2023-04-25T07:59:43;14.18;;;2.58;;
45728;SDS011;31439;53.512;10.206;2023-04-25T08:02:09;13.90;;;2.95;;
45728;SDS011;31439;53.512;10.206;2023-04-25T08:04:34;15.00;;;2.85;;
45728;SDS011;31439;53.512;10.206;2023-04-25T08:07:00;10.25;;;2.45;;
45728;SDS011;31439;53.512;10.206;2023-04-25T08:09:26;14.48;;;2.40;;
45728;SDS011;31439;53.512;10.206;2023-04-25T08:11:51;10.80;;;2.83;;
45728;SDS011;31439;53.512;10.206;2023-04-25T08:14:17;13.55;;;2.47;;
45728;SDS011;31439;53.512;10.206;2023-04-25T08:16:43;11.95;;;2.33;;
45728;SDS011;31439;53.512;10.206;2023-04-25T08:19:09;13.65;;;2.60;;
45728;SDS011;31439;53.512;10.206;2023-04-25T08:21:38;11.40;;;2.58;;
45728;SDS011;31439;53.512;10.206;2023-04-25T08:24:03;11.98;;;2.50;;
45728;SDS011;31439;53.512;10.206;2023-04-25T08:26:29;13.25;;;2.58;;
45728;SDS011;31439;53.512;10.206;2023-04-25T08:28:55;12.82;;;2.67;;
45728;SDS011;31439;53.512;10.206;2023-04-25T08:31:21;13.60;;;2.42;;
45728;SDS011;31439;53.512;10.206;2023-04-25T08:33:46;13.68;;;2.90;;
45728;SDS011;31439;53.512;10.206;2023-04-25T08:36:12;12.63;;;2.72;;
45728;SDS011;31439;53.512;10.206;2023-04-25T08:38:40;11.20;;;2.47;;
45728;SDS011;31439;53.512;10.206;2023-04-25T08:41:05;11.50;;;2.33;;
45728;SDS011;31439;53.512;10.206;2023-04-25T08:43:31;11.05;;;2.25;;
45728;SDS011;31439;53.512;10.206;2023-04-25T08:45:58;12.05;;;2.53;;
45728;SDS011;31439;53.512;10.206;2023-04-25T08:48:26;14.18;;;2.53;;
45728;SDS011;31439;53.512;10.206;2023-04-25T08:50:56;13.38;;;2.63;;
45728;SDS011;31439;53.512;10.206;2023-04-25T08:53:27;15.77;;;2.45;;
45728;SDS011;31439;53.512;10.206;2023-04-25T08:55:55;14.30;;;2.63;;
45728;SDS011;31439;53.512;10.206;2023-04-25T08:58:22;13.95;;;2.47;;
45728;SDS011;31439;53.512;10.206;2023-04-25T09:00:48;12.73;;;2.40;;
45728;SDS011;31439;53.512;10.206;2023-04-25T09:03:15;13.60;;;2.70;;
45728;SDS011;31439;53.512;10.206;2023-04-25T09:05:41;13.90;;;2.50;;
45728;SDS011;31439;53.512;10.206;2023-04-25T09:08:10;10.60;;;2.13;;
45728;SDS011;31439;53.512;10.206;2023-04-25T09:10:38;9.35;;;2.00;;
45728;SDS011;31439;53.512;10.206;2023-04-25T09:18:22;9.48;;;2.00;;
45728;SDS011;31439;53.512;10.206;2023-04-25T09:20:55;10.65;;;2.25;;
45728;SDS011;31439;53.512;10.206;2023-04-25T09:23:43;9.90;;;2.55;;
45728;SDS011;31439;53.512;10.206;2023-04-25T09:26:10;8.00;;;2.15;;
45728;SDS011;31439;53.512;10.206;2023-04-25T09:28:47;10.07;;;1.98;;
45728;SDS011;31439;53.512;10.206;2023-04-25T09:31:21;7.40;;;1.88;;
45728;SDS011;31439;53.512;10.206;2023-04-25T09:33:50;7.90;;;1.55;;
45728;SDS011;31439;53.512;10.206;2023-04-25T09:36:26;7.82;;;1.65;;
45728;SDS011;31439;53.512;10.206;2023-04-25T09:38:52;10.18;;;1.98;;
45728;SDS011;31439;53.512;10.206;2023-04-25T09:41:22;8.30;;;1.90;;
45728;SDS011;31439;53.512;10.206;2023-04-25T09:43:49;7.75;;;1.75;;
45728;SDS011;31439;53.512;10.206;2023-04-25T09:46:15;11.90;;;2.10;;
45728;SDS011;31439;53.512;10.206;2023-04-25T09:48:47;9.93;;;2.35;;
45728;SDS011;31439;53.512;10.206;2023-04-25T09:51:18;9.27;;;1.95;;
45728;SDS011;31439;53.512;10.206;2023-04-25T09:53:45;8.38;;;1.90;;
45728;SDS011;31439;53.512;10.206;2023-04-25T09:56:12;8.15;;;2.22;;
45728;SDS011;31439;53.512;10.206;2023-04-25T09:58:39;8.02;;;1.92;;
45728;SDS011;31439;53.512;10.206;2023-04-25T10:01:07;9.93;;;2.08;;
45728;SDS011;31439;53.512;10.206;2023-04-25T10:03:35;7.55;;;1.60;;
45728;SDS011;31439;53.512;10.206;2023-04-25T10:06:07;6.40;;;1.50;;
45728;SDS011;31439;53.512;10.206;2023-04-25T10:08:37;8.68;;;1.70;;
45728;SDS011;31439;53.512;10.206;2023-04-25T10:11:04;10.10;;;1.85;;
45728;SDS011;31439;53.512;10.206;2023-04-25T10:13:32;7.95;;;1.80;;
45728;SDS011;31439;53.512;10.206;2023-04-25T10:15:58;9.68;;;2.00;;
45728;SDS011;31439;53.512;10.206;2023-04-25T10:18:26;4.40;;;1.50;;
45728;SDS011;31439;53.512;10.206;2023-04-25T10:20:59;8.35;;;1.90;;
45728;SDS011;31439;53.512;10.206;2023-04-25T10:23:27;8.48;;;1.85;;
45728;SDS011;31439;53.512;10.206;2023-04-25T10:25:55;9.07;;;1.90;;
45728;SDS011;31439;53.512;10.206;2023-04-25T10:28:21;10.30;;;1.80;;
45728;SDS011;31439;53.512;10.206;2023-04-25T10:31:03;9.18;;;1.67;;
45728;SDS011;31439;53.512;10.206;2023-04-25T10:33:33;13.07;;;2.10;;
45728;SDS011;31439;53.512;10.206;2023-04-25T10:36:12;10.43;;;1.70;;
45728;SDS011;31439;53.512;10.206;2023-04-25T10:38:49;8.82;;;1.98;;
45728;SDS011;31439;53.512;10.206;2023-04-25T10:41:17;6.80;;;1.50;;
45728;SDS011;31439;53.512;10.206;2023-04-25T10:43:44;6.78;;;1.65;;
45728;SDS011;31439;53.512;10.206;2023-04-25T10:48:49;7.95;;;2.22;;
45728;SDS011;31439;53.512;10.206;2023-04-25T10:51:29;13.88;;;1.83;;
45728;SDS011;31439;53.512;10.206;2023-04-25T10:53:59;8.07;;;1.60;;
45728;SDS011;31439;53.512;10.206;2023-04-25T10:56:32;5.13;;;1.55;;
45728;SDS011;31439;53.512;10.206;2023-04-25T10:59:06;5.97;;;1.60;;
45728;SDS011;31439;53.512;10.206;2023-04-25T11:01:36;5.80;;;1.63;;
45728;SDS011;31439;53.512;10.206;2023-04-25T11:04:01;8.23;;;1.50;;
45728;SDS011;31439;53.512;10.206;2023-04-25T11:06:44;8.52;;;1.80;;
45728;SDS011;31439;53.512;10.206;2023-04-25T11:09:32;10.32;;;2.03;;
45728;SDS011;31439;53.512;10.206;2023-04-25T11:12:03;9.40;;;1.83;;
45728;SDS011;31439;53.512;10.206;2023-04-25T11:14:29;7.22;;;1.70;;
45728;SDS011;31439;53.512;10.206;2023-04-25T11:16:56;7.32;;;2.00;;
45728;SDS011;31439;53.512;10.206;2023-04-25T11:19:23;7.32;;;1.70;;
45728;SDS011;31439;53.512;10.206;2023-04-25T11:21:52;11.77;;;2.10;;
45728;SDS011;31439;53.512;10.206;2023-04-25T11:24:25;9.60;;;2.08;;
45728;SDS011;31439;53.512;10.206;2023-04-25T11:26:52;9.10;;;1.90;;
45728;SDS011;31439;53.512;10.206;2023-04-25T11:29:18;7.63;;;1.45;;
45728;SDS011;31439;53.512;10.206;2023-04-25T11:31:46;7.80;;;1.80;;
45728;SDS011;31439;53.512;10.206;2023-04-25T11:34:16;7.70;;;2.08;;
45728;SDS011;31439;53.512;10.206;2023-04-25T11:36:43;14.23;;;2.25;;
45728;SDS011;31439;53.512;10.206;2023-04-25T11:39:10;6.70;;;1.65;;
45728;SDS011;31439;53.512;10.206;2023-04-25T11:41:37;9.07;;;2.33;;
45728;SDS011;31439;53.512;10.206;2023-04-25T11:44:03;9.70;;;2.00;;
45728;SDS011;31439;53.512;10.206;2023-04-25T11:46:29;12.93;;;2.00;;
45728;SDS011;31439;53.512;10.206;2023-04-25T11:48:55;10.10;;;1.90;;
45728;SDS011;31439;53.512;10.206;2023-04-25T11:51:22;6.85;;;1.80;;
45728;SDS011;31439;53.512;10.206;2023-04-25T11:53:47;7.03;;;1.50;;
45728;SDS011;31439;53.512;10.206;2023-04-25T11:56:13;6.18;;;1.38;;
45728;SDS011;31439;53.512;10.206;2023-04-25T12:01:46;9.15;;;1.48;;
45728;SDS011;31439;53.512;10.206;2023-04-25T12:04:17;4.43;;;1.13;;
45728;SDS011;31439;53.512;10.206;2023-04-25T12:06:45;4.97;;;1.15;;
45728;SDS011;31439;53.512;10.206;2023-04-25T12:09:13;6.45;;;1.30;;
45728;SDS011;31439;53.512;10.206;2023-04-25T12:11:44;6.18;;;1.38;;
45728;SDS011;31439;53.512;10.206;2023-04-25T12:14:11;8.10;;;1.55;;
45728;SDS011;31439;53.512;10.206;2023-04-25T12:16:41;7.90;;;1.75;;
45728;SDS011;31439;53.512;10.206;2023-04-25T12:19:13;9.25;;;1.30;;
45728;SDS011;31439;53.512;10.206;2023-04-25T12:21:40;8.35;;;1.50;;
45728;SDS011;31439;53.512;10.206;2023-04-25T12:26:50;5.32;;;1.70;;
45728;SDS011;31439;53.512;10.206;2023-04-25T12:29:23;7.07;;;2.05;;
45728;SDS011;31439;53.512;10.206;2023-04-25T12:31:50;6.38;;;1.83;;
45728;SDS011;31439;53.512;10.206;2023-04-25T12:34:17;5.05;;;1.20;;
45728;SDS011;31439;53.512;10.206;2023-04-25T12:36:43;6.55;;;1.67;;
45728;SDS011;31439;53.512;10.206;2023-04-25T12:39:13;5.32;;;1.30;;
45728;SDS011;31439;53.512;10.206;2023-04-25T12:41:42;6.93;;;1.33;;
45728;SDS011;31439;53.512;10.206;2023-04-25T12:44:09;5.00;;;1.25;;
45728;SDS011;31439;53.512;10.206;2023-04-25T12:46:35;4.78;;;1.10;;
45728;SDS011;31439;53.512;10.206;2023-04-25T12:49:01;5.15;;;1.20;;
45728;SDS011;31439;53.512;10.206;2023-04-25T12:51:28;4.80;;;1.20;;
45728;SDS011;31439;53.512;10.206;2023-04-25T12:53:54;4.38;;;1.10;;
45728;SDS011;31439;53.512;10.206;2023-04-25T12:56:20;5.00;;;1.20;;
45728;SDS011;31439;53.512;10.206;2023-04-25T12:58:46;5.28;;;1.15;;
45728;SDS011;31439;53.512;10.206;2023-04-25T13:01:13;4.70;;;1.20;;
45728;SDS011;31439;53.512;10.206;2023-04-25T13:03:40;6.60;;;1.38;;
45728;SDS011;31439;53.512;10.206;2023-04-25T13:06:06;4.03;;;1.30;;
45728;SDS011;31439;53.512;10.206;2023-04-25T13:08:32;4.15;;;1.40;;
45728;SDS011;31439;53.512;10.206;2023-04-25T13:10:58;11.98;;;2.40;;
45728;SDS011;31439;53.512;10.206;2023-04-25T13:13:23;10.13;;;2.00;;
45728;SDS011;31439;53.512;10.206;2023-04-25T13:15:49;8.23;;;1.77;;
45728;SDS011;31439;53.512;10.206;2023-04-25T13:18:15;14.80;;;2.15;;
45728;SDS011;31439;53.512;10.206;2023-04-25T13:20:40;10.52;;;1.52;;
45728;SDS011;31439;53.512;10.206;2023-04-25T13:23:06;13.65;;;1.70;;
45728;SDS011;31439;53.512;10.206;2023-04-25T13:25:32;7.20;;;1.50;;
45728;SDS011;31439;53.512;10.206;2023-04-25T13:27:57;6.32;;;1.30;;
45728;SDS011;31439;53.512;10.206;2023-04-25T13:30:23;5.45;;;1.70;;
45728;SDS011;31439;53.512;10.206;2023-04-25T13:32:49;6.63;;;1.50;;
45728;SDS011;31439;53.512;10.206;2023-04-25T13:35:17;6.25;;;1.70;;
45728;SDS011;31439;53.512;10.206;2023-04-25T13:37:42;5.53;;;1.40;;
45728;SDS011;31439;53.512;10.206;2023-04-25T13:40:09;5.85;;;1.50;;
45728;SDS011;31439;53.512;10.206;2023-04-25T13:42:39;8.35;;;1.60;;
45728;SDS011;31439;53.512;10.206;2023-04-25T13:45:05;6.55;;;1.63;;
45728;SDS011;31439;53.512;10.206;2023-04-25T13:47:32;7.82;;;1.60;;
45728;SDS011;31439;53.512;10.206;2023-04-25T13:49:58;7.45;;;1.60;;
45728;SDS011;31439;53.512;10.206;2023-04-25T13:52:24;5.28;;;1.60;;
45728;SDS011;31439;53.512;10.206;2023-04-25T13:54:50;11.02;;;3.10;;
45728;SDS011;31439;53.512;10.206;2023-04-25T13:57:16;14.55;;;2.83;;
45728;SDS011;31439;53.512;10.206;2023-04-25T13:59:45;10.77;;;1.83;;
45728;SDS011;31439;53.512;10.206;2023-04-25T14:02:11;8.05;;;1.63;;
45728;SDS011;31439;53.512;10.206;2023-04-25T14:04:37;7.68;;;1.80;;
45728;SDS011;31439;53.512;10.206;2023-04-25T14:07:03;7.30;;;1.65;;
45728;SDS011;31439;53.512;10.206;2023-04-25T14:09:29;7.68;;;1.80;;
45728;SDS011;31439;53.512;10.206;2023-04-25T14:11:55;6.90;;;1.60;;
45728;SDS011;31439;53.512;10.206;2023-04-25T14:14:21;7.45;;;1.75;;
45728;SDS011;31439;53.512;10.206;2023-04-25T14:16:48;5.30;;;1.33;;
45728;SDS011;31439;53.512;10.206;2023-04-25T14:19:15;6.53;;;1.42;;
45728;SDS011;31439;53.512;10.206;2023-04-25T14:21:41;4.00;;;1.33;;
45728;SDS011;31439;53.512;10.206;2023-04-25T14:24:08;4.43;;;1.67;;
45728;SDS011;31439;53.512;10.206;2023-04-25T14:26:35;7.72;;;1.70;;
45728;SDS011;31439;53.512;10.206;2023-04-25T14:29:01;7.60;;;1.70;;
45728;SDS011;31439;53.512;10.206;2023-04-25T14:31:28;7.45;;;1.90;;
45728;SDS011;31439;53.512;10.206;2023-04-25T14:33:54;9.55;;;2.33;;
45728;SDS011;31439;53.512;10.206;2023-04-25T14:36:20;9.63;;;2.13;;
45728;SDS011;31439;53.512;10.206;2023-04-25T14:38:46;11.10;;;2.10;;